Time;durP1;ratioP1;P1;durP2;ratioP2;P2;SDS_P1;SDS_P2;PMS_P1;PMS_P2;Temp;Humidity;BMP_temperature;BMP_pressure;BME280_temperature;BME280_humidity;BME280_pressure;Samples;Min_cycle;Max_cycle;Signal;HPM_P1;HPM_P2
2022/12/11 00:00:41;;;;;;;4.13;1.23;;;33.20;47.50;;;;;;5026363;28;20718;-67
2022/12/11 00:03:11;;;;;;;3.38;1.23;;;32.80;47.10;;;;;;5043556;28;20452;-68
2022/12/11 00:05:41;;;;;;;2.95;0.90;;;33.10;48.40;;;;;;5046249;28;20056;-67
2022/12/11 00:08:12;;;;;;;4.88;2.08;;;33.60;49.00;;;;;;5037812;28;20026;-69
2022/12/11 00:10:39;;;;;;;4.93;1.65;;;33.80;46.60;;;;;;5037410;28;20036;-68
2022/12/11 00:13:06;;;;;;;8.02;2.13;;;33.70;48.70;;;;;;5036510;28;20390;-70
2022/12/11 00:15:33;;;;;;;3.08;1.10;;;33.80;46.80;;;;;;5044531;28;20033;-67
2022/12/11 00:18:01;;;;;;;5.35;1.00;;;32.80;45.40;;;;;;5027869;28;20067;-66
2022/12/11 00:20:28;;;;;;;4.22;1.50;;;32.50;47.40;;;;;;5026361;28;20433;-69
2022/12/11 00:22:55;;;;;;;8.38;1.42;;;33.00;49.40;;;;;;5036998;28;20024;-68
2022/12/11 00:25:22;;;;;;;4.78;1.15;;;32.30;48.60;;;;;;5039923;28;20044;-67
2022/12/11 00:27:49;;;;;;;4.50;1.00;;;32.80;49.00;;;;;;5045590;28;20024;-67
2022/12/11 00:30:17;;;;;;;5.43;1.17;;;33.20;47.80;;;;;;5043924;28;20056;-71
2022/12/11 00:32:44;;;;;;;3.80;1.10;;;33.40;47.90;;;;;;5041960;28;20482;-66
2022/12/11 00:35:11;;;;;;;3.45;0.90;;;33.90;46.60;;;;;;5042740;28;20112;-67
2022/12/11 00:37:38;;;;;;;3.53;0.60;;;33.90;46.60;;;;;;5043909;28;20381;-67
2022/12/11 00:40:06;;;;;;;5.70;1.10;;;33.90;44.10;;;;;;5035233;28;20068;-69
2022/12/11 00:42:33;;;;;;;6.53;1.20;;;34.10;48.30;;;;;;5048797;28;20028;-68
2022/12/11 00:45:01;;;;;;;4.03;0.93;;;34.40;46.80;;;;;;5047579;28;20055;-69
2022/12/11 00:47:28;;;;;;;5.72;1.17;;;34.60;45.60;;;;;;5050999;28;20023;-67
2022/12/11 00:49:55;;;;;;;5.47;1.20;;;35.20;44.10;;;;;;5056828;28;20028;-69
2022/12/11 00:52:23;;;;;;;4.63;1.10;;;34.90;43.20;;;;;;5038993;28;20024;-70
2022/12/11 00:54:50;;;;;;;8.48;1.52;;;34.60;46.20;;;;;;5042719;28;20474;-69
2022/12/11 00:57:20;;;;;;;4.22;0.88;;;35.10;45.50;;;;;;5049213;28;20746;-69
2022/12/11 00:59:53;;;;;;;5.53;1.20;;;35.20;45.60;;;;;;5049247;28;20104;-68
2022/12/11 01:02:20;;;;;;;6.03;1.20;;;35.20;43.20;;;;;;5046433;28;20029;-69
2022/12/11 01:04:48;;;;;;;5.63;1.08;;;34.90;44.70;;;;;;5034884;28;20049;-69
2022/12/11 01:07:15;;;;;;;3.50;1.25;;;35.10;43.70;;;;;;5045042;28;20039;-69
2022/12/11 01:12:27;;;;;;;3.92;1.30;;;34.70;43.20;;;;;;5035843;28;20129;-68
2022/12/11 01:14:58;;;;;;;6.55;1.05;;;34.90;45.60;;;;;;5042808;28;20787;-69
2022/12/11 01:17:25;;;;;;;4.90;1.73;;;34.60;43.30;;;;;;5050062;28;20040;-69
2022/12/11 01:19:54;;;;;;;2.17;0.85;;;34.20;46.30;;;;;;5049079;28;20025;-68
2022/12/11 01:22:21;;;;;;;2.63;0.88;;;34.50;46.60;;;;;;5034583;28;20385;-68
2022/12/11 01:24:52;;;;;;;2.80;1.00;;;34.80;44.90;;;;;;5039591;28;20036;-68
2022/12/11 01:27:19;;;;;;;4.15;1.20;;;35.00;44.40;;;;;;5034462;28;20025;-69
2022/12/11 01:29:50;;;;;;;4.20;1.60;;;35.10;45.80;;;;;;5036643;28;20035;-68
2022/12/11 01:32:17;;;;;;;3.60;1.52;;;35.60;44.40;;;;;;5039787;28;20112;-69
2022/12/11 01:34:44;;;;;;;3.17;1.23;;;35.70;45.30;;;;;;5060544;28;20029;-68
2022/12/11 01:37:12;;;;;;;4.50;1.10;;;35.80;43.10;;;;;;5031782;28;20544;-68
2022/12/11 01:39:39;;;;;;;4.75;1.17;;;36.00;44.00;;;;;;5029421;28;20025;-69
2022/12/11 01:42:09;;;;;;;3.35;1.10;;;36.40;45.30;;;;;;5033897;28;20021;-68
2022/12/11 01:44:36;;;;;;;4.20;1.23;;;36.80;44.30;;;;;;5032131;28;20053;-68
2022/12/11 01:47:03;;;;;;;3.25;0.98;;;36.80;44.30;;;;;;5041517;28;20049;-68
2022/12/11 01:49:30;;;;;;;4.50;1.20;;;36.80;43.20;;;;;;5033261;28;20505;-68
2022/12/11 01:52:06;;;;;;;3.08;1.10;;;36.60;44.40;;;;;;5047415;28;20436;-68
2022/12/11 01:54:34;;;;;;;5.30;1.45;;;36.70;43.30;;;;;;5044369;28;21472;-69
2022/12/11 01:57:06;;;;;;;5.15;1.25;;;36.90;42.40;;;;;;5036161;28;20079;-67
2022/12/11 01:59:38;;;;;;;4.78;1.35;;;36.90;42.40;;;;;;5033431;28;20057;-68
2022/12/11 02:02:14;;;;;;;2.75;1.17;;;36.50;42.90;;;;;;5032955;28;20510;-69
2022/12/11 02:04:42;;;;;;;3.13;0.90;;;36.60;42.00;;;;;;5042960;28;20090;-68
2022/12/11 02:07:10;;;;;;;4.90;1.15;;;36.70;42.70;;;;;;5046915;28;20501;-69
2022/12/11 02:09:40;;;;;;;5.38;1.65;;;36.30;41.40;;;;;;5046936;28;20025;-68
2022/12/11 02:12:29;;;;;;;4.35;1.08;;;35.20;43.20;;;;;;5031910;28;20022;-68
2022/12/11 02:14:59;;;;;;;2.90;1.13;;;35.30;45.00;;;;;;5042904;28;20025;-68
2022/12/11 02:17:29;;;;;;;3.45;1.17;;;35.70;44.30;;;;;;5051708;28;20549;-69
2022/12/11 02:20:17;;;;;;;4.90;1.35;;;36.20;45.70;;;;;;5046369;28;20036;-69
2022/12/11 02:23:07;;;;;;;4.03;1.00;;;36.50;42.70;;;;;;5038800;28;20520;-69
2022/12/11 02:26:11;;;;;;;5.00;1.55;;;36.70;41.80;;;;;;5035470;28;20036;-67
2022/12/11 02:28:58;;;;;;;4.22;1.17;;;36.00;41.80;;;;;;5055495;28;20029;-68
2022/12/11 02:31:37;;;;;;;5.78;1.05;;;36.00;44.50;;;;;;5038295;28;20470;-68
2022/12/11 02:34:19;;;;;;;3.58;0.93;;;35.90;42.50;;;;;;5044111;28;20032;-69
2022/12/11 02:36:53;;;;;;;2.70;1.00;;;35.90;43.40;;;;;;5036573;28;20033;-68
2022/12/11 02:39:22;;;;;;;4.85;1.25;;;36.10;41.90;;;;;;5052418;28;20025;-70
2022/12/11 02:41:51;;;;;;;3.60;1.20;;;36.40;44.20;;;;;;5040612;28;20803;-67
2022/12/11 02:44:24;;;;;;;2.40;1.23;;;36.80;44.80;;;;;;5047657;28;20131;-67
2022/12/11 02:46:53;;;;;;;2.65;1.25;;;37.40;43.30;;;;;;5037161;28;20028;-70
2022/12/11 02:49:22;;;;;;;2.75;0.90;;;37.40;40.70;;;;;;5028690;28;20037;-68
2022/12/11 02:51:51;;;;;;;1.95;0.75;;;37.30;42.90;;;;;;5047767;28;20245;-69
2022/12/11 02:54:28;;;;;;;8.68;1.17;;;37.50;42.70;;;;;;5037002;28;20049;-69
2022/12/11 02:57:22;;;;;;;3.50;1.08;;;37.30;41.60;;;;;;5042348;28;20029;-69
2022/12/11 02:59:49;;;;;;;2.38;1.20;;;37.70;42.20;;;;;;5052293;28;20032;-69
2022/12/11 03:02:17;;;;;;;4.18;0.90;;;38.10;42.40;;;;;;5044044;28;20026;-70
2022/12/11 03:04:46;;;;;;;5.65;1.02;;;37.90;42.70;;;;;;5048881;28;20025;-68
2022/12/11 03:07:25;;;;;;;4.28;1.50;;;37.60;40.60;;;;;;5036742;28;20107;-68
2022/12/11 03:09:53;;;;;;;5.85;1.13;;;37.60;42.20;;;;;;5045055;28;20102;-68
2022/12/11 03:12:36;;;;;;;2.42;0.85;;;37.70;44.10;;;;;;5038203;28;20061;-67
2022/12/11 03:15:09;;;;;;;2.00;0.88;;;37.80;42.50;;;;;;5032061;28;20032;-66
2022/12/11 03:17:50;;;;;;;5.07;1.63;;;37.80;42.90;;;;;;5042512;28;20366;-73
2022/12/11 03:21:01;;;;;;;2.70;1.00;;;37.40;42.50;;;;;;5035572;28;20286;-72
2022/12/11 03:23:43;;;;;;;4.00;1.13;;;36.90;41.50;;;;;;5043448;28;20029;-65
2022/12/11 03:26:14;;;;;;;3.53;1.20;;;36.30;41.80;;;;;;5045580;28;20037;-65
2022/12/11 03:28:50;;;;;;;3.22;1.05;;;36.30;42.00;;;;;;5036617;28;20461;-65
2022/12/11 03:31:26;;;;;;;5.03;1.48;;;35.80;41.80;;;;;;5043736;28;20021;-65
2022/12/11 03:33:59;;;;;;;4.78;1.30;;;35.90;42.40;;;;;;5042218;28;20024;-65
2022/12/11 03:36:34;;;;;;;9.17;1.37;;;36.60;44.30;;;;;;5040683;28;20073;-65
2022/12/11 03:39:22;;;;;;;6.05;1.17;;;36.70;40.80;;;;;;5035847;28;20037;-65
2022/12/11 03:41:51;;;;;;;4.57;1.27;;;35.90;42.70;;;;;;5036977;28;20493;-65
2022/12/11 03:44:20;;;;;;;4.43;1.15;;;36.10;45.90;;;;;;5041919;28;20116;-66
2022/12/11 03:46:49;;;;;;;3.88;1.20;;;36.80;43.10;;;;;;5038166;28;20079;-66
2022/12/11 03:49:22;;;;;;;5.22;1.65;;;36.20;41.60;;;;;;5038922;28;20028;-66
2022/12/11 03:51:52;;;;;;;2.80;1.02;;;36.20;42.30;;;;;;5044286;28;20021;-66
2022/12/11 03:54:23;;;;;;;4.60;1.73;;;36.00;41.40;;;;;;5047231;28;20104;-66
2022/12/11 03:56:54;;;;;;;4.18;1.38;;;36.30;43.40;;;;;;5040450;28;20028;-66
2022/12/11 03:59:21;;;;;;;3.63;1.20;;;36.30;41.50;;;;;;5041339;28;20025;-65
2022/12/11 04:01:48;;;;;;;5.85;1.25;;;36.70;42.90;;;;;;5030456;28;20079;-65
2022/12/11 04:04:16;;;;;;;5.72;1.85;;;36.90;43.70;;;;;;5040444;28;20453;-66
2022/12/11 04:06:43;;;;;;;6.95;3.80;;;37.00;43.00;;;;;;5035294;28;20047;-64
2022/12/11 04:09:10;;;;;;;2.95;1.10;;;37.40;41.40;;;;;;5030589;28;20577;-65
2022/12/11 04:11:38;;;;;;;4.75;1.20;;;36.80;40.30;;;;;;5031691;28;20116;-64
2022/12/11 04:16:58;;;;;;;5.47;1.23;;;35.50;41.30;;;;;;5029770;28;20037;-66
2022/12/11 04:25:02;;;;;;;5.03;1.30;;;36.20;42.30;;;;;;5055003;28;20052;-65
2022/12/11 04:30:17;;;;;;;5.10;1.35;;;36.70;41.40;;;;;;5030000;28;20063;-65
2022/12/11 04:32:44;;;;;;;4.22;1.83;;;37.00;42.70;;;;;;5052232;28;20017;-65
2022/12/11 04:35:12;;;;;;;7.18;2.35;;;37.10;41.50;;;;;;5045777;28;20029;-65
2022/12/11 04:37:40;;;;;;;4.90;1.52;;;37.00;41.10;;;;;;5030500;28;20033;-64
2022/12/11 04:40:11;;;;;;;6.90;1.35;;;37.00;41.70;;;;;;5033985;28;20084;-67
2022/12/11 04:42:38;;;;;;;3.08;1.05;;;37.00;41.00;;;;;;5041815;28;20387;-64
2022/12/11 04:45:07;;;;;;;3.08;1.33;;;37.20;40.40;;;;;;5041971;28;20048;-66
2022/12/11 04:47:38;;;;;;;3.90;2.13;;;36.90;40.20;;;;;;5056073;28;20100;-63
2022/12/11 04:50:08;;;;;;;5.93;1.38;;;36.80;40.30;;;;;;5055086;28;20040;-63
2022/12/11 04:52:35;;;;;;;4.93;1.08;;;37.00;41.80;;;;;;5049914;28;20025;-62
2022/12/11 04:55:05;;;;;;;2.90;1.30;;;37.40;40.70;;;;;;5049686;28;20088;-64
2022/12/11 04:57:32;;;;;;;7.38;1.60;;;37.50;41.20;;;;;;5061451;28;20028;-64
2022/12/11 05:00:03;;;;;;;4.40;2.08;;;37.70;40.50;;;;;;5055505;28;20021;-63
2022/12/11 05:02:33;;;;;;;4.90;1.35;;;37.70;40.00;;;;;;5040581;28;20509;-62
2022/12/11 05:05:02;;;;;;;2.97;0.98;;;37.60;39.40;;;;;;5057685;28;20040;-62
2022/12/11 05:07:29;;;;;;;2.05;0.85;;;37.60;38.90;;;;;;5054577;28;20401;-63
2022/12/11 05:09:56;;;;;;;4.75;1.08;;;37.20;39.60;;;;;;5054706;28;20053;-62
2022/12/11 05:12:23;;;;;;;1.70;0.70;;;36.80;38.90;;;;;;5051730;28;20282;-62
2022/12/11 05:14:54;;;;;;;4.18;1.33;;;36.20;39.00;;;;;;5069351;28;20031;-64
2022/12/11 05:17:22;;;;;;;3.00;0.80;;;36.00;41.20;;;;;;5049430;28;20363;-64
2022/12/11 05:19:50;;;;;;;2.50;0.90;;;36.00;40.20;;;;;;5045932;28;20022;-62
2022/12/11 05:22:18;;;;;;;4.00;1.35;;;36.00;40.30;;;;;;5059480;28;20028;-63
2022/12/11 05:24:45;;;;;;;3.75;1.30;;;35.90;40.40;;;;;;5039101;28;20490;-63
2022/12/11 05:27:13;;;;;;;5.70;1.50;;;35.80;41.30;;;;;;5049198;28;20397;-63
2022/12/11 05:29:40;;;;;;;3.97;1.10;;;35.80;40.80;;;;;;5039916;28;20021;-63
2022/12/11 05:32:07;;;;;;;3.58;1.17;;;35.70;40.40;;;;;;5035729;28;20497;-65
2022/12/11 05:34:34;;;;;;;4.22;1.20;;;35.80;40.90;;;;;;5036125;28;20044;-66
2022/12/11 05:37:02;;;;;;;2.35;1.00;;;36.00;40.50;;;;;;5036325;28;20162;-67
2022/12/11 05:39:29;;;;;;;4.75;1.38;;;36.30;40.00;;;;;;5041284;28;20052;-65
2022/12/11 05:41:56;;;;;;;2.33;0.70;;;36.40;40.80;;;;;;5035490;28;20017;-65
2022/12/11 05:44:24;;;;;;;4.53;0.80;;;36.20;40.10;;;;;;5034490;28;20839;-64
2022/12/11 05:46:51;;;;;;;5.53;1.10;;;35.80;40.20;;;;;;5037911;28;20025;-63
2022/12/11 05:49:18;;;;;;;2.65;1.30;;;35.40;44.80;;;;;;5036203;28;20056;-66
2022/12/11 05:51:46;;;;;;;5.50;1.70;;;35.10;45.40;;;;;;5031424;28;20116;-66
2022/12/11 05:54:13;;;;;;;3.10;1.33;;;34.90;46.90;;;;;;5037906;28;20033;-63
2022/12/11 05:56:41;;;;;;;7.03;2.35;;;34.00;48.40;;;;;;5039965;28;20029;-63
2022/12/11 05:59:08;;;;;;;5.10;1.40;;;33.30;49.00;;;;;;5039471;28;20107;-64
2022/12/11 06:01:39;;;;;;;6.45;1.30;;;32.40;50.10;;;;;;5046864;28;20025;-63
2022/12/11 06:04:08;;;;;;;5.07;1.20;;;32.30;50.80;;;;;;5038692;28;20034;-63
2022/12/11 06:06:36;;;;;;;5.03;1.25;;;32.50;50.90;;;;;;5043692;28;20017;-63
2022/12/11 06:09:05;;;;;;;5.57;1.45;;;32.60;50.20;;;;;;5041678;28;20389;-64
2022/12/11 06:11:33;;;;;;;5.85;1.00;;;32.60;51.50;;;;;;5031197;28;20465;-64
2022/12/11 06:14:02;;;;;;;3.58;1.13;;;32.40;50.70;;;;;;5043844;28;20367;-65
2022/12/11 06:16:29;;;;;;;5.90;1.60;;;31.90;51.70;;;;;;5035443;28;20033;-63
2022/12/11 06:18:57;;;;;;;6.93;1.35;;;31.40;52.70;;;;;;5030896;28;20075;-65
2022/12/11 06:21:34;;;;;;;4.65;1.10;;;31.50;52.50;;;;;;5029861;28;20028;-63
2022/12/11 06:24:03;;;;;;;9.80;1.42;;;31.60;52.40;;;;;;5029607;28;20095;-63
2022/12/11 06:26:30;;;;;;;6.13;0.98;;;31.50;52.50;;;;;;5032341;28;20829;-64
2022/12/11 06:28:58;;;;;;;4.78;1.10;;;31.40;52.20;;;;;;5029900;28;20113;-64
2022/12/11 06:31:25;;;;;;;4.45;1.10;;;31.40;52.40;;;;;;5031995;28;20029;-64
2022/12/11 06:33:55;;;;;;;6.78;1.33;;;31.40;52.70;;;;;;5031027;28;20032;-62
2022/12/11 06:36:24;;;;;;;7.13;1.42;;;31.50;52.60;;;;;;5040886;28;20433;-65
2022/12/11 06:38:52;;;;;;;3.92;1.65;;;31.70;52.00;;;;;;5052569;28;20033;-64
2022/12/11 06:41:19;;;;;;;5.72;1.10;;;31.70;51.80;;;;;;5034281;28;20097;-65
2022/12/11 06:43:46;;;;;;;5.07;1.98;;;31.70;51.60;;;;;;5031719;28;20159;-64
2022/12/11 06:46:19;;;;;;;3.90;1.10;;;31.90;51.90;;;;;;5041749;28;20029;-62
2022/12/11 06:48:47;;;;;;;6.93;1.33;;;32.00;51.50;;;;;;5045958;28;20049;-63
2022/12/11 06:51:17;;;;;;;4.38;1.55;;;32.00;51.60;;;;;;5044588;28;20063;-60
2022/12/11 06:53:49;;;;;;;3.95;1.10;;;31.80;52.00;;;;;;5036952;28;20049;-63
2022/12/11 06:56:17;;;;;;;5.28;1.40;;;32.00;51.60;;;;;;5034173;28;20025;-61
2022/12/11 06:58:44;;;;;;;4.57;1.20;;;31.80;51.90;;;;;;5043839;28;20074;-61
2022/12/11 07:01:26;;;;;;;5.15;1.20;;;31.70;52.10;;;;;;5033515;28;20524;-61
2022/12/11 07:03:58;;;;;;;4.97;1.05;;;31.60;52.20;;;;;;5035311;28;20044;-61
2022/12/11 07:06:27;;;;;;;5.97;1.10;;;31.60;52.40;;;;;;5034946;28;20061;-63
2022/12/11 07:08:55;;;;;;;3.53;1.00;;;31.50;52.70;;;;;;5034049;28;20033;-63
2022/12/11 07:11:22;;;;;;;5.25;1.13;;;31.50;52.90;;;;;;5039578;28;20020;-63
2022/12/11 07:13:50;;;;;;;4.57;1.08;;;31.60;53.10;;;;;;5030337;28;20026;-62
2022/12/11 07:16:18;;;;;;;6.95;1.02;;;31.50;53.60;;;;;;5038610;28;20104;-64
2022/12/11 07:18:49;;;;;;;5.80;1.10;;;31.40;53.60;;;;;;5030164;28;20025;-62
2022/12/11 07:21:17;;;;;;;5.90;1.20;;;31.30;53.90;;;;;;5038266;28;20041;-65
2022/12/11 07:23:45;;;;;;;8.07;1.80;;;31.50;53.70;;;;;;5032679;28;20635;-62
2022/12/11 07:26:15;;;;;;;7.00;1.55;;;31.60;53.80;;;;;;5035454;28;20398;-62
2022/12/11 07:28:42;;;;;;;5.25;1.20;;;31.60;53.70;;;;;;5031543;28;20099;-61
2022/12/11 07:31:12;;;;;;;5.63;1.20;;;31.30;54.30;;;;;;5031248;28;20017;-62
2022/12/11 07:33:40;;;;;;;7.38;1.25;;;31.20;54.60;;;;;;5043918;28;20501;-62
2022/12/11 07:36:09;;;;;;;6.28;1.63;;;31.00;55.10;;;;;;5038326;28;20037;-61
2022/12/11 07:38:37;;;;;;;6.47;1.40;;;30.80;55.00;;;;;;5048411;28;20021;-61
2022/12/11 07:41:06;;;;;;;9.65;1.23;;;30.50;55.80;;;;;;5042166;28;20021;-62
2022/12/11 07:43:34;;;;;;;7.13;1.88;;;30.30;56.10;;;;;;5035638;28;20556;-61
2022/12/11 07:46:07;;;;;;;3.08;1.30;;;30.00;56.30;;;;;;5035833;28;20041;-61
2022/12/11 07:48:40;;;;;;;4.97;1.63;;;29.70;56.80;;;;;;5036657;28;20020;-62
2022/12/11 07:51:19;;;;;;;3.88;1.30;;;29.40;58.60;;;;;;5036453;28;20359;-61
2022/12/11 07:53:49;;;;;;;6.18;1.40;;;29.10;58.20;;;;;;5032972;28;20133;-62
2022/12/11 07:56:17;;;;;;;4.07;1.05;;;29.00;58.70;;;;;;5029738;28;20040;-62
2022/12/11 07:58:45;;;;;;;5.50;1.55;;;29.00;59.60;;;;;;5027638;28;20418;-63
2022/12/11 08:01:20;;;;;;;7.68;1.63;;;28.90;59.30;;;;;;5027531;28;20849;-66
2022/12/11 08:03:49;;;;;;;7.93;1.55;;;28.70;59.80;;;;;;5028011;28;20033;-66
2022/12/11 08:06:17;;;;;;;6.85;1.13;;;28.60;60.10;;;;;;5034405;28;20032;-68
2022/12/11 08:08:44;;;;;;;6.95;1.83;;;28.40;60.80;;;;;;5028451;28;20026;-69
2022/12/11 08:11:13;;;;;;;3.97;1.30;;;28.30;61.40;;;;;;5025615;28;20033;-66
2022/12/11 08:13:43;;;;;;;7.05;1.85;;;28.10;62.20;;;;;;5040408;28;20146;-67
2022/12/11 08:16:13;;;;;;;8.90;1.60;;;27.90;62.50;;;;;;5028403;28;20032;-69
2022/12/11 08:18:42;;;;;;;5.95;1.67;;;27.70;63.30;;;;;;5034136;28;20040;-65
2022/12/11 08:21:11;;;;;;;7.00;1.52;;;27.50;64.10;;;;;;5040180;28;20548;-71
2022/12/11 08:23:38;;;;;;;11.38;1.50;;;27.40;64.70;;;;;;5037689;28;20068;-69
2022/12/11 08:26:07;;;;;;;7.28;1.80;;;27.30;65.10;;;;;;5032644;28;20144;-67
2022/12/11 08:28:35;;;;;;;12.88;2.03;;;27.20;66.10;;;;;;5025432;28;20021;-68
2022/12/11 08:31:08;;;;;;;7.70;2.03;;;27.10;66.00;;;;;;5039776;28;20397;-66
2022/12/11 08:33:37;;;;;;;5.70;1.27;;;27.00;66.80;;;;;;5027334;28;20132;-67
2022/12/11 08:36:09;;;;;;;6.40;1.20;;;26.90;67.30;;;;;;5043438;28;20497;-66
2022/12/11 08:38:37;;;;;;;8.43;1.92;;;26.70;67.70;;;;;;5033772;28;20457;-67
2022/12/11 08:41:12;;;;;;;4.13;1.63;;;26.60;68.50;;;;;;5025973;28;20025;-67
2022/12/11 08:43:40;;;;;;;10.63;2.03;;;26.50;68.90;;;;;;5028015;28;20186;-67
2022/12/11 08:46:08;;;;;;;13.52;1.95;;;26.40;69.50;;;;;;5032880;28;20486;-67
2022/12/11 08:48:36;;;;;;;7.97;1.52;;;26.40;70.40;;;;;;5041591;28;20055;-67
2022/12/11 08:51:08;;;;;;;7.75;1.60;;;26.20;70.90;;;;;;5028496;28;20095;-68
2022/12/11 08:53:35;;;;;;;4.07;1.30;;;26.20;71.50;;;;;;5034821;28;20029;-68
2022/12/11 08:56:08;;;;;;;7.28;1.90;;;26.10;72.40;;;;;;5031416;28;20029;-67
2022/12/11 08:58:36;;;;;;;5.32;2.38;;;26.10;72.90;;;;;;5035782;28;20505;-67
2022/12/11 09:01:12;;;;;;;8.00;1.48;;;26.00;73.60;;;;;;5041050;28;20064;-69
2022/12/11 09:03:41;;;;;;;7.72;1.90;;;25.90;74.50;;;;;;5038429;28;20041;-68
2022/12/11 09:06:10;;;;;;;5.63;1.58;;;25.80;75.10;;;;;;5034117;28;20560;-67
2022/12/11 09:08:38;;;;;;;8.95;1.70;;;25.80;75.70;;;;;;5045948;28;20036;-67
2022/12/11 09:11:07;;;;;;;8.10;1.33;;;25.70;76.30;;;;;;5038148;28;20034;-65
2022/12/11 09:13:35;;;;;;;6.28;1.30;;;25.60;77.30;;;;;;5036474;28;20025;-66
2022/12/11 09:16:08;;;;;;;7.72;2.05;;;25.60;77.60;;;;;;5043648;28;20506;-69
2022/12/11 09:18:36;;;;;;;10.10;1.40;;;25.60;78.10;;;;;;5045471;28;20128;-66
2022/12/11 09:21:07;;;;;;;5.53;1.58;;;25.50;78.80;;;;;;5032934;28;20024;-71
2022/12/11 09:23:35;;;;;;;5.90;1.42;;;25.30;79.20;;;;;;5045685;28;20029;-66
2022/12/11 09:26:07;;;;;;;9.55;1.55;;;25.20;80.30;;;;;;5036727;28;20033;-66
2022/12/11 09:28:34;;;;;;;5.90;1.77;;;25.10;80.80;;;;;;5047663;28;20025;-66
2022/12/11 09:31:07;;;;;;;10.73;1.95;;;25.00;81.70;;;;;;5036898;28;20520;-66
2022/12/11 09:33:34;;;;;;;6.22;1.75;;;24.90;83.40;;;;;;5040181;28;20031;-67
2022/12/11 09:36:03;;;;;;;9.73;1.50;;;24.80;83.80;;;;;;5039472;28;20036;-66
2022/12/11 09:38:32;;;;;;;6.47;1.50;;;24.80;84.20;;;;;;5043960;28;20512;-65
2022/12/11 09:41:00;;;;;;;7.75;1.63;;;24.70;84.80;;;;;;5037294;28;20036;-65
2022/12/11 09:43:41;;;;;;;6.13;1.40;;;24.70;85.30;;;;;;5033175;28;20064;-68
2022/12/11 09:46:14;;;;;;;3.78;1.23;;;24.60;85.60;;;;;;5036171;28;20025;-66
2022/12/11 09:48:48;;;;;;;4.70;1.20;;;24.60;86.50;;;;;;5037051;28;20013;-64
2022/12/11 09:51:51;;;;;;;15.05;1.70;;;24.50;86.80;;;;;;5033365;28;20052;-67
2022/12/11 09:54:18;;;;;;;5.72;1.33;;;24.40;87.80;;;;;;5045644;28;20501;-65
2022/12/11 09:56:53;;;;;;;4.03;1.50;;;24.30;87.90;;;;;;5035127;28;20112;-64
2022/12/11 09:59:20;;;;;;;7.78;1.95;;;24.10;88.00;;;;;;5043078;28;20033;-66
2022/12/11 10:02:04;;;;;;;5.38;1.65;;;24.00;89.60;;;;;;5044218;28;20025;-66
2022/12/11 10:04:34;;;;;;;11.75;1.63;;;23.90;90.80;;;;;;5040506;28;20029;-65
2022/12/11 10:07:14;;;;;;;11.40;2.00;;;23.80;91.10;;;;;;5040372;28;20032;-65
2022/12/11 10:10:07;;;;;;;6.03;1.83;;;23.70;91.40;;;;;;5042723;28;20632;-65
2022/12/11 10:13:12;;;;;;;9.48;1.55;;;23.70;91.50;;;;;;5035276;28;20143;-66
2022/12/11 10:15:50;;;;;;;9.70;2.72;;;23.70;91.50;;;;;;5046652;28;20037;-66
2022/12/11 10:18:22;;;;;;;10.98;1.67;;;23.80;92.10;;;;;;5040247;28;20432;-66
2022/12/11 10:20:51;;;;;;;7.43;1.90;;;23.60;91.90;;;;;;5041087;28;20032;-64
2022/12/11 10:23:34;;;;;;;8.85;1.70;;;23.60;92.10;;;;;;5045997;28;20029;-64
2022/12/11 10:26:21;;;;;;;9.30;2.00;;;23.50;92.40;;;;;;5037407;28;20037;-66
2022/12/11 10:28:49;;;;;;;11.25;1.88;;;23.30;92.70;;;;;;5036432;28;20028;-64
2022/12/11 10:31:39;;;;;;;4.63;1.63;;;23.20;93.10;;;;;;5048561;28;20025;-65
2022/12/11 10:34:22;;;;;;;6.97;1.88;;;23.10;93.30;;;;;;5037025;28;20035;-67
2022/12/11 10:36:49;;;;;;;6.45;1.67;;;23.00;93.80;;;;;;5055182;28;20036;-65
2022/12/11 10:39:21;;;;;;;6.82;2.05;;;23.00;94.10;;;;;;5030300;28;20482;-66
2022/12/11 10:41:51;;;;;;;7.13;1.40;;;23.00;94.10;;;;;;5048697;28;20029;-64
2022/12/11 10:44:20;;;;;;;6.40;1.45;;;22.90;93.90;;;;;;5036391;28;20127;-65
2022/12/11 10:47:00;;;;;;;4.40;1.50;;;22.80;94.10;;;;;;5043142;28;20033;-67
2022/12/11 10:49:30;;;;;;;8.45;1.80;;;22.60;94.90;;;;;;5031934;28;20532;-66
2022/12/11 10:52:01;;;;;;;8.73;1.58;;;22.50;95.10;;;;;;5036792;28;20030;-65
2022/12/11 10:54:30;;;;;;;5.65;1.20;;;22.40;95.30;;;;;;5054875;28;20116;-66
2022/12/11 10:56:58;;;;;;;8.93;1.80;;;22.30;95.80;;;;;;5040928;28;20090;-65
2022/12/11 10:59:39;;;;;;;8.63;1.55;;;22.20;96.00;;;;;;5042451;28;20672;-65
2022/12/11 11:02:22;;;;;;;6.70;1.55;;;22.10;96.20;;;;;;5042544;28;20123;-66
2022/12/11 11:04:50;;;;;;;7.68;1.75;;;22.00;96.50;;;;;;5036272;28;20781;-65
2022/12/11 11:07:33;;;;;;;3.67;1.23;;;22.00;96.90;;;;;;5039566;28;20034;-65
2022/12/11 11:10:15;;;;;;;4.30;1.38;;;21.90;97.10;;;;;;5032755;28;20110;-64
2022/12/11 11:12:50;;;;;;;3.90;1.38;;;21.80;97.60;;;;;;5035749;28;20585;-64
2022/12/11 11:15:26;;;;;;;8.45;1.98;;;21.80;98.00;;;;;;5042233;28;20461;-65
2022/12/11 11:17:56;;;;;;;3.63;1.05;;;21.80;98.30;;;;;;5037092;28;20772;-65
2022/12/11 11:20:30;;;;;;;5.88;1.58;;;21.80;98.50;;;;;;5033798;28;20421;-64
2022/12/11 11:23:04;;;;;;;5.68;1.80;;;21.80;98.60;;;;;;5053496;28;20033;-65
2022/12/11 11:25:33;;;;;;;5.57;2.65;;;21.80;98.60;;;;;;5043697;28;20040;-64
2022/12/11 11:28:06;;;;;;;10.18;2.28;;;21.70;98.80;;;;;;5035710;28;20035;-64
2022/12/11 11:30:41;;;;;;;8.63;2.90;;;21.70;99.00;;;;;;5028645;28;20033;-65
2022/12/11 11:33:16;;;;;;;6.75;2.50;;;21.60;99.10;;;;;;5027626;28;20262;-64
2022/12/11 11:36:04;;;;;;;17.38;3.42;;;21.60;99.30;;;;;;5028381;28;20048;-64
2022/12/11 11:38:34;;;;;;;6.95;2.45;;;21.50;99.40;;;;;;5058651;28;20028;-66
2022/12/11 11:41:27;;;;;;;10.32;3.05;;;21.50;99.50;;;;;;5067690;28;20564;-65
2022/12/11 11:44:06;;;;;;;11.80;2.72;;;21.40;99.60;;;;;;5056748;28;20492;-65
2022/12/11 11:46:43;;;;;;;8.85;2.38;;;21.40;99.90;;;;;;5045521;28;20480;-65
2022/12/11 11:49:27;;;;;;;8.77;2.50;;;21.40;99.90;;;;;;5046668;28;20083;-64
2022/12/11 11:52:13;;;;;;;9.82;2.60;;;21.30;99.90;;;;;;5027037;28;20043;-65
2022/12/11 11:55:02;;;;;;;5.57;1.90;;;21.20;99.90;;;;;;5027154;28;20037;-64
2022/12/11 11:57:42;;;;;;;11.30;2.20;;;21.20;99.90;;;;;;5026887;28;20029;-64
2022/12/11 12:00:19;;;;;;;9.10;2.58;;;21.10;99.90;;;;;;5027470;28;20482;-64
2022/12/11 12:02:49;;;;;;;7.78;2.13;;;21.20;99.90;;;;;;5027354;28;20078;-65
2022/12/11 12:05:34;;;;;;;9.35;2.38;;;21.10;99.90;;;;;;5039162;28;20036;-65
2022/12/11 12:08:26;;;;;;;10.23;2.88;;;21.10;99.90;;;;;;5035590;28;20025;-65
2022/12/11 12:11:11;;;;;;;12.13;2.58;;;21.00;99.90;;;;;;5033483;28;20147;-66
2022/12/11 12:14:01;;;;;;;5.78;1.83;;;21.00;99.90;;;;;;5040330;28;20512;-64
2022/12/11 12:16:49;;;;;;;5.85;1.85;;;21.00;99.90;;;;;;5041698;28;20155;-65
2022/12/11 12:19:43;;;;;;;8.02;2.00;;;20.90;99.90;;;;;;5029494;28;20036;-67
2022/12/11 12:22:50;;;;;;;6.28;1.67;;;20.90;99.90;;;;;;5042609;28;20036;-61
2022/12/11 12:25:48;;;;;;;5.60;1.73;;;20.90;99.90;;;;;;5029114;28;20041;-65
2022/12/11 12:28:36;;;;;;;6.47;2.13;;;20.80;99.90;;;;;;5031487;28;20026;-67
2022/12/11 12:31:35;;;;;;;8.40;2.10;;;20.80;99.90;;;;;;5045460;28;20444;-65
2022/12/11 12:34:49;;;;;;;9.05;2.00;;;20.80;99.90;;;;;;5033313;28;20087;-66
2022/12/11 12:37:26;;;;;;;9.30;2.65;;;20.70;99.90;;;;;;5043360;28;20060;-65
2022/12/11 12:40:35;;;;;;;8.40;2.40;;;20.80;99.90;;;;;;5036289;28;20549;-64
2022/12/11 12:43:49;;;;;;;15.80;2.72;;;20.80;99.90;;;;;;5035063;28;20044;-64
2022/12/11 12:46:36;;;;;;;11.80;2.60;;;20.90;99.90;;;;;;5038632;28;20049;-66
2022/12/11 12:49:03;;;;;;;;;;;20.90;99.90;;;;;;5027232;28;20108;-66
2022/12/11 12:51:31;;;;;;;9.30;3.53;;;21.00;99.90;;;;;;5032593;28;19989;-66
2022/12/11 12:54:02;;;;;;;10.75;2.75;;;21.10;99.90;;;;;;5035704;28;20041;-66
2022/12/11 12:56:31;;;;;;;14.80;3.53;;;21.10;99.90;;;;;;5028157;28;20486;-65
2022/12/11 12:58:58;;;;;;;10.43;2.95;;;21.20;99.90;;;;;;5040380;28;20067;-65
2022/12/11 13:01:28;;;;;;;10.82;2.95;;;21.20;99.90;;;;;;5036678;28;20029;-65
2022/12/11 13:04:05;;;;;;;8.35;2.63;;;21.30;99.90;;;;;;5029047;28;20029;-66
2022/12/11 13:06:45;;;;;;;8.63;2.55;;;21.30;99.90;;;;;;5042197;28;20378;-65
2022/12/11 13:09:17;;;;;;;12.13;2.60;;;21.30;99.90;;;;;;5031416;28;20071;-66
2022/12/11 13:11:48;;;;;;;8.57;2.60;;;21.30;99.90;;;;;;5033578;28;20083;-66
2022/12/11 13:14:16;;;;;;;10.55;2.63;;;21.40;99.90;;;;;;5037048;28;20060;-65
2022/12/11 13:16:48;;;;;;;7.25;2.40;;;21.40;99.90;;;;;;5039512;28;20028;-65
2022/12/11 13:19:25;;;;;;;9.25;2.50;;;21.50;99.90;;;;;;5039933;28;20029;-65
2022/12/11 13:22:15;;;;;;;11.05;2.90;;;21.50;99.90;;;;;;5033860;28;20068;-65
2022/12/11 13:24:52;;;;;;;8.93;3.10;;;21.50;99.90;;;;;;5043890;28;20571;-65
2022/12/11 13:27:38;;;;;;;6.57;2.33;;;21.60;99.90;;;;;;5032938;28;20071;-66